createdAt,value
2023-03-10T00:01:09.807Z,3.20
2023-03-10T00:03:36.781Z,3.20
2023-03-10T00:06:03.522Z,3.30
2023-03-10T00:08:30.252Z,2.80
2023-03-10T00:10:56.904Z,2.60
2023-03-10T00:13:23.568Z,2.70
2023-03-10T00:15:50.273Z,2.80
2023-03-10T00:18:16.962Z,3.10
2023-03-10T00:20:43.616Z,3.30
2023-03-10T00:23:10.259Z,3.20
2023-03-10T00:25:36.910Z,2.70
2023-03-10T00:28:03.584Z,2.40
2023-03-10T00:30:32.619Z,2.70
2023-03-10T00:32:59.683Z,2.70
2023-03-10T00:35:26.377Z,2.40
2023-03-10T00:37:53.354Z,2.40
2023-03-10T00:40:20.115Z,2.40
2023-03-10T00:42:46.932Z,2.10
2023-03-10T00:45:13.637Z,2.30
2023-03-10T00:47:40.358Z,2.40
2023-03-10T00:50:07.185Z,2.20
2023-03-10T00:52:33.955Z,2.10
2023-03-10T00:55:00.648Z,2.10
2023-03-10T00:57:27.342Z,2.10
2023-03-10T00:59:54.000Z,2.30
2023-03-10T01:02:20.800Z,2.30
2023-03-10T01:04:47.854Z,2.20
2023-03-10T01:07:14.547Z,2.10
2023-03-10T01:09:41.289Z,2.30
2023-03-10T01:12:08.146Z,2.60
2023-03-10T01:14:34.823Z,2.40
2023-03-10T01:17:01.507Z,2.50
2023-03-10T01:19:28.156Z,2.40
2023-03-10T01:21:54.789Z,2.40
2023-03-10T01:24:21.457Z,2.30
2023-03-10T01:26:48.118Z,2.10
2023-03-10T01:29:14.761Z,2.10
2023-03-10T01:31:42.099Z,2.10
2023-03-10T01:34:09.050Z,1.80
2023-03-10T01:36:35.707Z,1.70
2023-03-10T01:39:02.360Z,1.80
2023-03-10T01:41:29.072Z,1.90
2023-03-10T01:43:56.452Z,2.00
2023-03-10T01:46:29.369Z,1.70
2023-03-10T01:48:57.266Z,2.00
2023-03-10T01:51:24.503Z,2.00
2023-03-10T01:53:51.682Z,2.00
2023-03-10T01:56:18.382Z,1.80
2023-03-10T01:58:46.158Z,1.70
2023-03-10T02:01:13.721Z,1.90
2023-03-10T02:03:49.955Z,1.80
2023-03-10T02:06:19.345Z,1.70
2023-03-10T02:08:48.974Z,1.80
2023-03-10T02:11:15.689Z,1.50
2023-03-10T02:13:42.410Z,1.70
2023-03-10T02:16:09.325Z,1.70
2023-03-10T02:18:36.060Z,1.70
2023-03-10T02:21:14.104Z,1.80
2023-03-10T02:23:58.822Z,2.00
2023-03-10T02:26:36.066Z,2.10
2023-03-10T02:29:04.868Z,2.10
2023-03-10T02:31:31.748Z,1.70
2023-03-10T02:33:58.554Z,1.50
2023-03-10T02:36:25.487Z,1.70
2023-03-10T02:38:52.358Z,1.70
2023-03-10T02:41:30.692Z,1.50
2023-03-10T02:43:58.134Z,1.60
2023-03-10T02:46:24.785Z,1.70
2023-03-10T02:48:51.756Z,1.70
2023-03-10T02:51:20.126Z,1.30
2023-03-10T02:53:46.817Z,1.20
2023-03-10T02:56:13.470Z,1.10
2023-03-10T02:58:40.155Z,1.00
2023-03-10T03:01:06.844Z,1.20
2023-03-10T03:03:34.048Z,1.50
2023-03-10T03:06:00.933Z,1.40
2023-03-10T03:08:27.955Z,1.30
2023-03-10T03:10:54.953Z,1.30
2023-03-10T03:13:21.609Z,1.20
2023-03-10T03:15:48.796Z,1.20
2023-03-10T03:18:15.672Z,1.20
2023-03-10T03:20:42.586Z,1.10
2023-03-10T03:23:09.404Z,1.40
2023-03-10T03:25:37.573Z,1.60
2023-03-10T03:28:05.336Z,1.00
2023-03-10T03:30:31.990Z,1.10
2023-03-10T03:32:58.762Z,1.10
2023-03-10T03:35:27.748Z,1.10
2023-03-10T03:37:54.993Z,1.30
2023-03-10T03:40:22.294Z,1.20
2023-03-10T03:42:50.049Z,1.70
2023-03-10T03:45:18.110Z,1.90
2023-03-10T03:47:45.090Z,1.40
2023-03-10T03:50:13.163Z,1.30
2023-03-10T03:52:40.611Z,1.20
2023-03-10T03:55:07.953Z,0.90
2023-03-10T03:57:34.612Z,1.00
2023-03-10T04:00:01.611Z,1.10
2023-03-10T04:02:28.689Z,1.20
2023-03-10T04:04:55.639Z,1.30
2023-03-10T04:07:22.324Z,1.40
2023-03-10T04:09:49.241Z,1.00
2023-03-10T04:12:15.892Z,1.00
2023-03-10T04:14:42.554Z,1.00
2023-03-10T04:17:11.835Z,0.90
2023-03-10T04:19:38.869Z,0.90
2023-03-10T04:22:05.555Z,1.00
2023-03-10T04:24:32.245Z,1.10
2023-03-10T04:26:58.947Z,1.00
2023-03-10T04:29:27.529Z,0.90
2023-03-10T04:32:04.829Z,0.90
2023-03-10T04:34:32.115Z,0.80
2023-03-10T04:36:58.752Z,0.80
2023-03-10T04:39:25.394Z,0.70
2023-03-10T04:41:52.215Z,0.70
2023-03-10T04:44:30.470Z,0.60
2023-03-10T04:46:57.902Z,0.70
2023-03-10T04:49:24.698Z,0.50
2023-03-10T04:51:51.346Z,0.60
2023-03-10T04:54:18.184Z,0.50
2023-03-10T04:56:44.845Z,0.60
2023-03-10T04:59:11.531Z,0.40
2023-03-10T05:01:38.225Z,0.40
2023-03-10T05:04:05.363Z,0.50
2023-03-10T05:06:32.077Z,0.50
2023-03-10T05:08:58.735Z,0.40
2023-03-10T05:11:25.376Z,0.70
2023-03-10T05:13:52.054Z,0.30
2023-03-10T05:16:20.083Z,0.10
2023-03-10T05:18:46.974Z,0.30
2023-03-10T05:21:14.042Z,0.50
2023-03-10T05:23:40.765Z,0.70
2023-03-10T05:26:08.859Z,0.80
2023-03-10T05:28:35.530Z,0.40
2023-03-10T05:31:07.545Z,0.40
2023-03-10T05:33:34.201Z,0.40
2023-03-10T05:36:03.785Z,0.50
2023-03-10T05:38:30.439Z,0.30
2023-03-10T05:40:57.109Z,0.40
2023-03-10T05:43:23.786Z,0.50
2023-03-10T05:45:57.309Z,0.50
2023-03-10T05:48:24.166Z,0.50
2023-03-10T05:51:00.211Z,0.60
2023-03-10T05:53:27.122Z,0.70
2023-03-10T05:55:54.337Z,0.70
2023-03-10T05:58:21.003Z,0.80
2023-03-10T06:00:47.652Z,0.90
2023-03-10T06:03:14.414Z,1.10
2023-03-10T06:05:41.165Z,0.80
2023-03-10T06:08:07.841Z,0.90
2023-03-10T06:10:34.626Z,1.00
2023-03-10T06:13:01.441Z,1.00
2023-03-10T06:15:28.129Z,1.20
2023-03-10T06:17:54.809Z,1.30
2023-03-10T06:20:21.568Z,1.40
2023-03-10T06:22:48.341Z,1.50
2023-03-10T06:25:15.050Z,1.60
2023-03-10T06:27:41.752Z,1.70
2023-03-10T06:30:08.647Z,1.80
2023-03-10T06:32:35.416Z,2.00
2023-03-10T06:35:02.122Z,2.20
2023-03-10T06:37:28.753Z,2.10
2023-03-10T06:39:55.451Z,2.20
2023-03-10T06:42:22.106Z,2.30
2023-03-10T06:44:49.494Z,2.60
2023-03-10T06:47:16.162Z,2.80
2023-03-10T06:49:42.815Z,2.90
2023-03-10T06:52:09.502Z,3.00
2023-03-10T06:54:36.548Z,3.20
2023-03-10T06:57:04.399Z,3.50
2023-03-10T06:59:31.834Z,3.40
2023-03-10T07:01:58.514Z,3.50
2023-03-10T07:04:25.208Z,3.70
2023-03-10T07:06:51.993Z,4.00
2023-03-10T07:09:18.668Z,4.20
2023-03-10T07:11:45.345Z,4.20
2023-03-10T07:14:12.029Z,4.20
2023-03-10T07:16:39.536Z,4.30
2023-03-10T07:19:06.371Z,4.60
2023-03-10T07:21:33.141Z,4.60
2023-03-10T07:23:59.819Z,4.70
2023-03-10T07:26:26.626Z,4.70
2023-03-10T07:28:54.320Z,4.90
2023-03-10T07:31:21.377Z,4.90
2023-03-10T07:33:49.377Z,4.90
2023-03-10T07:36:17.289Z,4.90
2023-03-10T07:38:44.358Z,5.00
2023-03-10T07:41:13.483Z,5.00
2023-03-10T07:43:40.259Z,5.10
2023-03-10T07:46:08.193Z,5.10
2023-03-10T07:48:35.164Z,5.20
2023-03-10T07:51:01.970Z,5.40
2023-03-10T07:53:28.991Z,5.40
2023-03-10T07:55:56.113Z,5.90
2023-03-10T07:58:22.998Z,6.00
2023-03-10T08:00:58.164Z,5.90
2023-03-10T08:03:25.803Z,5.80
2023-03-10T08:05:52.542Z,5.70
2023-03-10T08:08:19.257Z,5.80
2023-03-10T08:10:46.083Z,6.10
2023-03-10T08:13:13.279Z,6.40
2023-03-10T08:15:40.491Z,6.70
2023-03-10T08:18:07.929Z,6.70
2023-03-10T08:20:35.888Z,6.80
2023-03-10T08:23:27.398Z,7.00
2023-03-10T08:25:54.075Z,7.70
2023-03-10T08:28:20.786Z,8.20
2023-03-10T08:31:03.092Z,8.30
2023-03-10T08:33:30.937Z,8.40
2023-03-10T08:36:02.105Z,8.70
2023-03-10T08:38:28.851Z,9.10
2023-03-10T08:40:55.721Z,9.10
2023-03-10T08:43:22.379Z,9.10
2023-03-10T08:45:49.072Z,9.40
2023-03-10T08:48:15.785Z,9.50
2023-03-10T08:50:42.468Z,9.90
2023-03-10T08:53:09.125Z,10.40
2023-03-10T08:55:35.797Z,10.60
2023-03-10T08:58:07.453Z,10.50
2023-03-10T09:00:34.242Z,10.60
2023-03-10T09:03:01.011Z,10.70
2023-03-10T09:05:28.242Z,10.70
2023-03-10T09:07:55.155Z,10.80
2023-03-10T09:10:21.912Z,11.00
2023-03-10T09:12:48.679Z,10.80
2023-03-10T09:15:15.349Z,11.00
2023-03-10T09:17:42.045Z,11.30
2023-03-10T09:20:09.301Z,11.50
2023-03-10T09:22:35.959Z,11.50
2023-03-10T09:25:02.647Z,11.60
2023-03-10T09:27:29.290Z,11.50
2023-03-10T09:29:56.391Z,11.50
2023-03-10T09:32:24.228Z,11.60
2023-03-10T09:34:51.021Z,11.70
2023-03-10T09:37:17.807Z,11.80
2023-03-10T09:39:44.482Z,11.90
2023-03-10T09:42:14.839Z,12.00
2023-03-10T09:45:00.448Z,12.30
2023-03-10T09:47:27.725Z,12.40
2023-03-10T09:49:54.353Z,12.40
2023-03-10T09:52:28.122Z,12.20
2023-03-10T09:55:01.760Z,12.30
2023-03-10T09:57:29.229Z,12.30
2023-03-10T09:59:58.041Z,12.50
2023-03-10T10:02:44.228Z,12.50
2023-03-10T10:05:18.287Z,12.70
2023-03-10T10:07:54.867Z,12.80
2023-03-10T10:10:26.036Z,12.70
2023-03-10T10:12:54.678Z,13.00
2023-03-10T10:15:26.782Z,13.20
2023-03-10T10:18:05.518Z,13.30
2023-03-10T10:20:40.358Z,13.50
2023-03-10T10:23:15.317Z,13.60
2023-03-10T10:25:42.527Z,13.50
2023-03-10T10:28:16.529Z,13.70
2023-03-10T10:30:43.404Z,13.80
2023-03-10T10:33:11.345Z,13.80
2023-03-10T10:35:46.401Z,13.80
2023-03-10T10:38:16.098Z,14.00
2023-03-10T10:41:02.086Z,13.90
2023-03-10T10:43:29.448Z,13.90
2023-03-10T10:45:57.549Z,13.90
2023-03-10T10:48:35.214Z,13.80
2023-03-10T10:51:02.334Z,13.90
2023-03-10T10:53:34.429Z,14.20
2023-03-10T10:56:13.367Z,14.40
2023-03-10T10:58:41.126Z,14.60
2023-03-10T11:01:09.114Z,14.70
2023-03-10T11:03:37.393Z,14.30
2023-03-10T11:06:14.635Z,14.40
2023-03-10T11:12:53.588Z,14.90
2023-03-10T11:18:52.258Z,15.00
2023-03-10T11:21:23.364Z,14.90
2023-03-10T11:27:30.000Z,14.80
2023-03-10T11:30:12.777Z,15.00
2023-03-10T11:39:48.500Z,15.40
2023-03-10T11:42:27.455Z,15.30
2023-03-10T11:44:58.895Z,15.70
2023-03-10T11:50:56.117Z,15.80
2023-03-10T11:59:44.050Z,16.00
2023-03-10T12:02:15.529Z,15.80
2023-03-10T12:04:59.117Z,16.20
2023-03-10T12:07:39.206Z,15.90
2023-03-10T12:13:48.314Z,16.00
2023-03-10T12:23:04.706Z,15.30
2023-03-10T12:25:33.179Z,15.50
2023-03-10T12:35:12.806Z,15.50
2023-03-10T12:37:48.630Z,15.50
2023-03-10T12:47:51.841Z,15.70
2023-03-10T12:54:14.266Z,15.80
2023-03-10T12:56:48.678Z,16.00
2023-03-10T12:59:41.453Z,16.20
2023-03-10T13:02:31.566Z,16.40
2023-03-10T13:05:04.339Z,16.70
2023-03-10T13:07:31.382Z,16.70
2023-03-10T13:09:59.087Z,16.80
2023-03-10T13:12:46.048Z,16.20
2023-03-10T13:15:20.292Z,16.30
2023-03-10T13:17:46.992Z,16.80
2023-03-10T13:20:17.689Z,16.50
2023-03-10T13:22:54.825Z,16.00
2023-03-10T13:25:21.877Z,16.20
2023-03-10T13:27:48.725Z,16.50
2023-03-10T13:30:20.226Z,16.50
2023-03-10T13:32:53.456Z,16.60
2023-03-10T13:35:31.182Z,17.20
2023-03-10T13:38:04.304Z,17.80
2023-03-10T13:40:30.965Z,17.70
2023-03-10T13:42:57.749Z,17.20
2023-03-10T13:45:25.239Z,16.90
2023-03-10T13:47:52.426Z,16.50
2023-03-10T13:50:19.478Z,16.50
2023-03-10T13:52:57.785Z,16.40
2023-03-10T14:02:47.996Z,16.50
2023-03-10T14:08:46.270Z,16.40
2023-03-10T14:15:02.969Z,16.20
2023-03-10T14:28:12.822Z,15.60
2023-03-10T14:30:41.155Z,15.50
2023-03-10T15:22:46.111Z,11.70
2023-03-10T15:28:54.830Z,11.10
2023-03-10T15:31:21.547Z,10.60
2023-03-10T15:33:48.267Z,10.40
2023-03-10T15:36:15.247Z,10.30
2023-03-10T15:38:42.087Z,10.20
2023-03-10T15:48:15.427Z,10.30
2023-03-10T16:04:49.406Z,10.90
2023-03-10T16:07:17.415Z,10.90
2023-03-10T16:09:44.197Z,10.80
2023-03-10T16:12:10.989Z,10.60
2023-03-10T16:21:53.681Z,10.50
2023-03-10T16:24:32.800Z,10.50
2023-03-10T16:27:00.132Z,10.30
2023-03-10T16:29:26.867Z,10.00
2023-03-10T16:31:54.226Z,9.90
2023-03-10T16:34:21.154Z,9.90
2023-03-10T16:36:48.922Z,9.50
2023-03-10T16:39:17.878Z,9.50
2023-03-10T16:41:44.874Z,9.30
2023-03-10T16:44:12.823Z,9.30
2023-03-10T16:46:43.719Z,9.10
2023-03-10T16:49:13.033Z,9.30
2023-03-10T16:52:07.929Z,9.50
2023-03-10T16:58:02.805Z,9.40
2023-03-10T17:00:29.823Z,8.80
2023-03-10T17:02:56.883Z,8.30
2023-03-10T17:12:26.500Z,7.50
2023-03-10T17:18:19.402Z,7.30
2023-03-10T17:20:46.211Z,7.30
2023-03-10T17:23:12.989Z,7.60
2023-03-10T17:25:42.210Z,7.30
2023-03-10T17:31:31.415Z,6.90
2023-03-10T17:34:02.446Z,7.10
2023-03-10T17:36:29.299Z,6.90
2023-03-10T17:52:59.370Z,6.90
2023-03-10T17:55:26.456Z,6.50
2023-03-10T17:57:53.135Z,6.10
2023-03-10T18:04:08.476Z,6.20
2023-03-10T18:06:35.934Z,6.50
2023-03-10T18:09:06.409Z,6.50
2023-03-10T18:11:33.146Z,6.00
2023-03-10T18:14:03.375Z,5.50
2023-03-10T18:16:31.398Z,5.60
2023-03-10T18:18:59.397Z,5.90
2023-03-10T18:21:46.304Z,5.60
2023-03-10T18:24:37.710Z,5.60
2023-03-10T18:27:04.963Z,5.30
2023-03-10T18:29:39.887Z,5.00
2023-03-10T18:34:58.354Z,5.50
2023-03-10T18:37:26.193Z,5.70
2023-03-10T18:39:52.981Z,5.30
2023-03-10T18:42:21.860Z,5.30
2023-03-10T18:44:48.560Z,5.50
2023-03-10T18:47:15.233Z,5.20
2023-03-10T18:49:42.638Z,5.30
2023-03-10T18:52:09.690Z,5.40
2023-03-10T18:54:36.483Z,5.70
2023-03-10T18:57:04.871Z,5.90
2023-03-10T18:59:32.531Z,5.50
2023-03-10T19:02:00.249Z,5.50
2023-03-10T19:04:27.214Z,5.00
2023-03-10T19:06:55.403Z,5.00
2023-03-10T19:09:26.267Z,5.30
2023-03-10T19:11:54.364Z,5.00
2023-03-10T19:14:21.244Z,5.00
2023-03-10T19:16:50.135Z,5.10
2023-03-10T19:19:17.721Z,5.30
2023-03-10T19:21:44.539Z,5.50
2023-03-10T19:24:11.241Z,5.60
2023-03-10T19:26:38.500Z,5.80
2023-03-10T19:29:05.571Z,5.60
2023-03-10T19:31:32.738Z,5.60
2023-03-10T19:33:59.670Z,5.80
2023-03-10T19:36:27.075Z,5.90
2023-03-10T19:39:01.124Z,6.00
2023-03-10T19:41:27.982Z,6.10
2023-03-10T19:43:54.811Z,5.90
2023-03-10T19:46:21.700Z,5.80
2023-03-10T19:48:48.678Z,5.80
2023-03-10T19:51:20.511Z,5.70
2023-03-10T19:53:47.305Z,5.80
2023-03-10T19:56:15.570Z,5.70
2023-03-10T19:58:42.463Z,5.80
2023-03-10T20:01:20.023Z,5.70
2023-03-10T20:03:46.910Z,5.60
2023-03-10T20:06:13.662Z,5.40
2023-03-10T20:08:40.389Z,5.30
2023-03-10T20:11:07.399Z,5.40
2023-03-10T20:13:38.498Z,5.30
2023-03-10T20:16:05.507Z,5.50
2023-03-10T20:18:32.403Z,5.60
2023-03-10T20:21:01.390Z,5.30
2023-03-10T20:23:28.464Z,5.20
2023-03-10T20:26:08.586Z,5.20
2023-03-10T20:28:35.978Z,5.10
2023-03-10T20:31:02.935Z,5.10
2023-03-10T20:33:30.625Z,5.20
2023-03-10T20:35:57.603Z,5.10
2023-03-10T20:38:24.764Z,4.80
2023-03-10T20:46:13.162Z,5.00
2023-03-10T20:48:43.275Z,5.20
2023-03-10T21:18:17.437Z,5.00
2023-03-10T21:20:44.230Z,5.00
2023-03-10T21:23:11.023Z,4.90
2023-03-10T21:25:37.821Z,4.80
2023-03-10T21:28:04.534Z,5.00
2023-03-10T21:30:32.078Z,5.00
2023-03-10T21:32:59.320Z,4.80
2023-03-10T21:35:26.932Z,4.70
2023-03-10T21:37:55.560Z,4.40
2023-03-10T21:40:24.361Z,4.50
2023-03-10T21:42:51.148Z,4.60
2023-03-10T21:45:19.637Z,4.70
2023-03-10T21:47:46.353Z,4.70
2023-03-10T21:50:13.724Z,4.90
2023-03-10T21:52:40.794Z,4.70
2023-03-10T21:55:08.641Z,4.70
2023-03-10T21:57:35.359Z,4.80
2023-03-10T22:00:02.034Z,4.80
2023-03-10T22:02:30.070Z,5.00
2023-03-10T22:04:57.158Z,4.90
2023-03-10T22:07:24.095Z,4.80
2023-03-10T22:09:50.816Z,4.90
2023-03-10T22:12:18.613Z,5.00
2023-03-10T22:14:45.712Z,5.10
2023-03-10T22:17:12.388Z,5.10
2023-03-10T22:19:39.154Z,5.20
2023-03-10T22:22:05.945Z,5.30
2023-03-10T22:24:33.327Z,5.40
2023-03-10T22:27:00.108Z,5.40
2023-03-10T22:29:26.856Z,5.50
2023-03-10T22:31:56.168Z,5.60
2023-03-10T22:34:23.060Z,5.50
2023-03-10T22:36:49.763Z,5.50
2023-03-10T22:39:16.502Z,5.50
2023-03-10T22:41:43.435Z,5.40
2023-03-10T22:44:10.154Z,5.40
2023-03-10T22:46:36.974Z,5.50
2023-03-10T22:49:04.672Z,5.50
2023-03-10T22:51:31.403Z,5.50
2023-03-10T22:53:58.064Z,5.60
2023-03-10T22:56:24.784Z,5.50
2023-03-10T22:58:51.546Z,5.60
2023-03-10T23:01:18.295Z,5.70
2023-03-10T23:03:45.065Z,5.60
2023-03-10T23:06:13.582Z,5.60
2023-03-10T23:08:41.716Z,5.50
2023-03-10T23:11:12.376Z,5.50
2023-03-10T23:13:39.640Z,5.60
2023-03-10T23:16:07.268Z,5.60
2023-03-10T23:18:34.249Z,5.70
2023-03-10T23:21:01.433Z,5.60
2023-03-10T23:23:28.226Z,5.70
2023-03-10T23:25:55.039Z,5.70
2023-03-10T23:28:21.906Z,5.80
2023-03-10T23:30:49.412Z,5.80
2023-03-10T23:33:17.726Z,5.60
2023-03-10T23:35:46.356Z,5.60
2023-03-10T23:38:13.177Z,5.60
2023-03-10T23:40:39.867Z,5.70
2023-03-10T23:43:06.988Z,5.60
2023-03-10T23:45:35.488Z,5.60
2023-03-10T23:48:02.630Z,5.60
2023-03-10T23:50:31.035Z,5.60
2023-03-10T23:52:57.798Z,5.70
2023-03-10T23:55:27.102Z,5.70
2023-03-10T23:57:54.009Z,5.80
